sensor_id;sensor_type;location;lat;lon;timestamp;P1;durP1;ratioP1;P2;durP2;ratioP2
20567;SDS011;10442;49.932;11.592;2023-05-14T00:01:48;4.43;;;4.13;;
20567;SDS011;10442;49.932;11.592;2023-05-14T00:04:17;4.20;;;3.90;;
20567;SDS011;10442;49.932;11.592;2023-05-14T00:06:48;6.40;;;4.03;;
20567;SDS011;10442;49.932;11.592;2023-05-14T00:09:15;3.83;;;3.63;;
20567;SDS011;10442;49.932;11.592;2023-05-14T00:11:42;4.03;;;3.75;;
20567;SDS011;10442;49.932;11.592;2023-05-14T00:14:10;4.05;;;3.75;;
20567;SDS011;10442;49.932;11.592;2023-05-14T00:16:38;4.68;;;4.30;;
20567;SDS011;10442;49.932;11.592;2023-05-14T00:19:05;3.75;;;3.42;;
20567;SDS011;10442;49.932;11.592;2023-05-14T00:21:32;4.65;;;4.25;;
20567;SDS011;10442;49.932;11.592;2023-05-14T00:24:00;4.13;;;3.83;;
20567;SDS011;10442;49.932;11.592;2023-05-14T00:26:27;3.67;;;3.38;;
20567;SDS011;10442;49.932;11.592;2023-05-14T00:28:55;6.85;;;4.20;;
20567;SDS011;10442;49.932;11.592;2023-05-14T00:31:22;4.30;;;4.00;;
20567;SDS011;10442;49.932;11.592;2023-05-14T00:33:50;4.57;;;4.28;;
20567;SDS011;10442;49.932;11.592;2023-05-14T00:36:17;4.32;;;4.03;;
20567;SDS011;10442;49.932;11.592;2023-05-14T00:38:45;5.25;;;4.75;;
20567;SDS011;10442;49.932;11.592;2023-05-14T00:41:12;4.72;;;4.32;;
20567;SDS011;10442;49.932;11.592;2023-05-14T00:43:40;4.80;;;4.40;;
20567;SDS011;10442;49.932;11.592;2023-05-14T00:46:07;4.40;;;4.10;;
20567;SDS011;10442;49.932;11.592;2023-05-14T00:48:35;4.93;;;4.63;;
20567;SDS011;10442;49.932;11.592;2023-05-14T00:51:03;4.35;;;3.95;;
20567;SDS011;10442;49.932;11.592;2023-05-14T00:53:31;5.55;;;5.05;;
20567;SDS011;10442;49.932;11.592;2023-05-14T00:55:59;4.65;;;4.13;;
20567;SDS011;10442;49.932;11.592;2023-05-14T00:58:27;4.65;;;4.30;;
20567;SDS011;10442;49.932;11.592;2023-05-14T01:00:55;4.78;;;4.38;;
20567;SDS011;10442;49.932;11.592;2023-05-14T01:03:22;4.72;;;4.32;;
20567;SDS011;10442;49.932;11.592;2023-05-14T01:10:57;3.72;;;3.50;;
20567;SDS011;10442;49.932;11.592;2023-05-14T01:13:43;4.15;;;3.85;;
20567;SDS011;10442;49.932;11.592;2023-05-14T01:16:20;4.80;;;4.40;;
20567;SDS011;10442;49.932;11.592;2023-05-14T01:18:49;4.53;;;4.22;;
20567;SDS011;10442;49.932;11.592;2023-05-14T01:21:37;4.40;;;4.10;;
20567;SDS011;10442;49.932;11.592;2023-05-14T01:24:07;4.50;;;4.18;;
20567;SDS011;10442;49.932;11.592;2023-05-14T01:26:35;4.93;;;4.30;;
20567;SDS011;10442;49.932;11.592;2023-05-14T01:29:18;3.83;;;3.55;;
20567;SDS011;10442;49.932;11.592;2023-05-14T01:31:52;4.90;;;4.50;;
20567;SDS011;10442;49.932;11.592;2023-05-14T01:34:23;5.38;;;4.13;;
20567;SDS011;10442;49.932;11.592;2023-05-14T01:36:54;5.28;;;4.30;;
20567;SDS011;10442;49.932;11.592;2023-05-14T01:39:23;4.57;;;4.28;;
20567;SDS011;10442;49.932;11.592;2023-05-14T01:41:52;4.60;;;4.22;;
20567;SDS011;10442;49.932;11.592;2023-05-14T01:44:21;4.80;;;4.40;;
20567;SDS011;10442;49.932;11.592;2023-05-14T01:46:49;4.78;;;4.38;;
20567;SDS011;10442;49.932;11.592;2023-05-14T01:49:16;4.75;;;4.35;;
20567;SDS011;10442;49.932;11.592;2023-05-14T01:51:45;3.90;;;3.65;;
20567;SDS011;10442;49.932;11.592;2023-05-14T01:54:12;4.63;;;4.32;;
20567;SDS011;10442;49.932;11.592;2023-05-14T01:56:40;4.13;;;3.83;;
20567;SDS011;10442;49.932;11.592;2023-05-14T01:59:07;4.55;;;4.18;;
20567;SDS011;10442;49.932;11.592;2023-05-14T02:01:35;4.10;;;3.88;;
20567;SDS011;10442;49.932;11.592;2023-05-14T02:04:03;4.63;;;4.30;;
20567;SDS011;10442;49.932;11.592;2023-05-14T02:06:30;4.82;;;4.43;;
20567;SDS011;10442;49.932;11.592;2023-05-14T02:08:58;4.63;;;3.90;;
20567;SDS011;10442;49.932;11.592;2023-05-14T02:11:26;4.60;;;4.20;;
20567;SDS011;10442;49.932;11.592;2023-05-14T02:13:53;4.85;;;4.45;;
20567;SDS011;10442;49.932;11.592;2023-05-14T02:16:20;4.65;;;4.35;;
20567;SDS011;10442;49.932;11.592;2023-05-14T02:18:50;4.72;;;4.32;;
20567;SDS011;10442;49.932;11.592;2023-05-14T02:21:17;5.13;;;4.15;;
20567;SDS011;10442;49.932;11.592;2023-05-14T02:23:45;5.60;;;5.20;;
20567;SDS011;10442;49.932;11.592;2023-05-14T02:26:14;5.35;;;4.95;;
20567;SDS011;10442;49.932;11.592;2023-05-14T02:28:41;4.60;;;4.25;;
20567;SDS011;10442;49.932;11.592;2023-05-14T02:31:08;4.68;;;4.22;;
20567;SDS011;10442;49.932;11.592;2023-05-14T02:33:36;4.82;;;4.20;;
20567;SDS011;10442;49.932;11.592;2023-05-14T02:36:03;4.88;;;4.55;;
20567;SDS011;10442;49.932;11.592;2023-05-14T02:38:31;5.32;;;4.50;;
20567;SDS011;10442;49.932;11.592;2023-05-14T02:40:58;4.63;;;4.22;;
20567;SDS011;10442;49.932;11.592;2023-05-14T02:43:25;4.53;;;4.13;;
20567;SDS011;10442;49.932;11.592;2023-05-14T02:45:53;6.20;;;4.65;;
20567;SDS011;10442;49.932;11.592;2023-05-14T02:48:21;5.05;;;4.65;;
20567;SDS011;10442;49.932;11.592;2023-05-14T02:50:48;5.40;;;4.90;;
20567;SDS011;10442;49.932;11.592;2023-05-14T02:53:17;5.80;;;5.00;;
20567;SDS011;10442;49.932;11.592;2023-05-14T02:55:45;5.68;;;5.18;;
20567;SDS011;10442;49.932;11.592;2023-05-14T02:58:12;5.05;;;4.65;;
20567;SDS011;10442;49.932;11.592;2023-05-14T03:00:40;5.30;;;4.90;;
20567;SDS011;10442;49.932;11.592;2023-05-14T03:03:08;4.82;;;4.43;;
20567;SDS011;10442;49.932;11.592;2023-05-14T03:05:36;3.92;;;3.63;;
20567;SDS011;10442;49.932;11.592;2023-05-14T03:08:03;5.55;;;5.05;;
20567;SDS011;10442;49.932;11.592;2023-05-14T03:10:30;6.57;;;4.30;;
20567;SDS011;10442;49.932;11.592;2023-05-14T03:12:58;4.38;;;4.07;;
20567;SDS011;10442;49.932;11.592;2023-05-14T03:15:26;4.78;;;4.47;;
20567;SDS011;10442;49.932;11.592;2023-05-14T03:17:53;4.43;;;4.03;;
20567;SDS011;10442;49.932;11.592;2023-05-14T03:20:22;4.78;;;4.38;;
20567;SDS011;10442;49.932;11.592;2023-05-14T03:22:51;4.32;;;4.00;;
20567;SDS011;10442;49.932;11.592;2023-05-14T03:25:20;4.93;;;4.53;;
20567;SDS011;10442;49.932;11.592;2023-05-14T03:27:47;4.72;;;4.32;;
20567;SDS011;10442;49.932;11.592;2023-05-14T03:30:14;5.90;;;4.47;;
20567;SDS011;10442;49.932;11.592;2023-05-14T03:32:42;4.55;;;4.25;;
20567;SDS011;10442;49.932;11.592;2023-05-14T03:35:09;4.33;;;4.03;;
20567;SDS011;10442;49.932;11.592;2023-05-14T03:37:37;4.85;;;4.45;;
20567;SDS011;10442;49.932;11.592;2023-05-14T03:40:04;5.03;;;4.63;;
20567;SDS011;10442;49.932;11.592;2023-05-14T03:42:33;4.65;;;4.30;;
20567;SDS011;10442;49.932;11.592;2023-05-14T03:45:01;4.57;;;4.18;;
20567;SDS011;10442;49.932;11.592;2023-05-14T03:47:29;4.95;;;4.55;;
20567;SDS011;10442;49.932;11.592;2023-05-14T03:49:56;4.63;;;4.32;;
20567;SDS011;10442;49.932;11.592;2023-05-14T03:52:24;3.92;;;3.63;;
20567;SDS011;10442;49.932;11.592;2023-05-14T03:54:51;4.53;;;4.13;;
20567;SDS011;10442;49.932;11.592;2023-05-14T03:57:18;4.25;;;3.95;;
20567;SDS011;10442;49.932;11.592;2023-05-14T03:59:46;4.60;;;4.25;;
20567;SDS011;10442;49.932;11.592;2023-05-14T04:02:13;3.70;;;3.47;;
20567;SDS011;10442;49.932;11.592;2023-05-14T04:04:41;4.40;;;4.00;;
20567;SDS011;10442;49.932;11.592;2023-05-14T04:07:08;4.57;;;4.18;;
20567;SDS011;10442;49.932;11.592;2023-05-14T04:09:36;5.53;;;3.80;;
20567;SDS011;10442;49.932;11.592;2023-05-14T04:12:03;5.22;;;4.20;;
20567;SDS011;10442;49.932;11.592;2023-05-14T04:14:32;4.22;;;3.92;;
20567;SDS011;10442;49.932;11.592;2023-05-14T04:17:00;5.25;;;4.82;;
20567;SDS011;10442;49.932;11.592;2023-05-14T04:19:27;4.63;;;4.20;;
20567;SDS011;10442;49.932;11.592;2023-05-14T04:21:54;4.63;;;4.22;;
20567;SDS011;10442;49.932;11.592;2023-05-14T04:24:22;5.07;;;4.18;;
20567;SDS011;10442;49.932;11.592;2023-05-14T04:26:49;4.50;;;4.13;;
20567;SDS011;10442;49.932;11.592;2023-05-14T04:29:16;4.50;;;4.18;;
20567;SDS011;10442;49.932;11.592;2023-05-14T04:31:44;4.43;;;4.13;;
20567;SDS011;10442;49.932;11.592;2023-05-14T04:34:12;4.45;;;4.10;;
20567;SDS011;10442;49.932;11.592;2023-05-14T04:36:39;3.97;;;3.60;;
20567;SDS011;10442;49.932;11.592;2023-05-14T04:39:07;5.07;;;4.63;;
20567;SDS011;10442;49.932;11.592;2023-05-14T04:41:38;4.30;;;4.00;;
20567;SDS011;10442;49.932;11.592;2023-05-14T04:44:05;4.18;;;3.88;;
20567;SDS011;10442;49.932;11.592;2023-05-14T04:46:33;5.93;;;4.93;;
20567;SDS011;10442;49.932;11.592;2023-05-14T04:52:18;5.47;;;5.03;;
20567;SDS011;10442;49.932;11.592;2023-05-14T04:54:46;5.43;;;5.03;;
20567;SDS011;10442;49.932;11.592;2023-05-14T04:57:13;5.40;;;4.88;;
20567;SDS011;10442;49.932;11.592;2023-05-14T04:59:40;5.00;;;4.60;;
20567;SDS011;10442;49.932;11.592;2023-05-14T05:02:08;5.78;;;5.13;;
20567;SDS011;10442;49.932;11.592;2023-05-14T05:04:35;7.28;;;5.63;;
20567;SDS011;10442;49.932;11.592;2023-05-14T05:07:03;5.97;;;5.50;;
20567;SDS011;10442;49.932;11.592;2023-05-14T05:09:31;5.70;;;5.20;;
20567;SDS011;10442;49.932;11.592;2023-05-14T05:11:58;6.32;;;4.97;;
20567;SDS011;10442;49.932;11.592;2023-05-14T05:14:27;5.88;;;4.95;;
20567;SDS011;10442;49.932;11.592;2023-05-14T05:16:54;5.60;;;4.38;;
20567;SDS011;10442;49.932;11.592;2023-05-14T05:19:21;5.25;;;4.85;;
20567;SDS011;10442;49.932;11.592;2023-05-14T05:22:05;4.95;;;4.55;;
20567;SDS011;10442;49.932;11.592;2023-05-14T05:24:33;5.30;;;4.90;;
20567;SDS011;10442;49.932;11.592;2023-05-14T05:27:00;6.13;;;4.95;;
20567;SDS011;10442;49.932;11.592;2023-05-14T05:29:27;5.43;;;5.03;;
20567;SDS011;10442;49.932;11.592;2023-05-14T05:31:55;8.48;;;5.68;;
20567;SDS011;10442;49.932;11.592;2023-05-14T05:34:22;4.95;;;4.55;;
20567;SDS011;10442;49.932;11.592;2023-05-14T05:36:49;5.05;;;4.75;;
20567;SDS011;10442;49.932;11.592;2023-05-14T05:39:17;5.03;;;4.63;;
20567;SDS011;10442;49.932;11.592;2023-05-14T05:41:44;5.28;;;4.88;;
20567;SDS011;10442;49.932;11.592;2023-05-14T05:44:11;4.45;;;4.15;;
20567;SDS011;10442;49.932;11.592;2023-05-14T05:46:39;5.88;;;5.47;;
20567;SDS011;10442;49.932;11.592;2023-05-14T05:49:06;5.97;;;5.57;;
20567;SDS011;10442;49.932;11.592;2023-05-14T05:51:33;5.13;;;4.72;;
20567;SDS011;10442;49.932;11.592;2023-05-14T05:54:01;5.65;;;5.25;;
20567;SDS011;10442;49.932;11.592;2023-05-14T05:56:28;5.93;;;5.32;;
20567;SDS011;10442;49.932;11.592;2023-05-14T05:58:55;4.82;;;4.53;;
20567;SDS011;10442;49.932;11.592;2023-05-14T06:01:23;5.65;;;5.20;;
20567;SDS011;10442;49.932;11.592;2023-05-14T06:03:50;5.30;;;4.90;;
20567;SDS011;10442;49.932;11.592;2023-05-14T06:06:18;4.85;;;4.50;;
20567;SDS011;10442;49.932;11.592;2023-05-14T06:08:46;5.95;;;5.55;;
20567;SDS011;10442;49.932;11.592;2023-05-14T06:11:13;5.38;;;4.97;;
20567;SDS011;10442;49.932;11.592;2023-05-14T06:13:41;5.35;;;4.95;;
20567;SDS011;10442;49.932;11.592;2023-05-14T06:16:08;5.47;;;5.03;;
20567;SDS011;10442;49.932;11.592;2023-05-14T06:18:35;5.60;;;5.20;;
20567;SDS011;10442;49.932;11.592;2023-05-14T06:21:03;4.97;;;4.65;;
20567;SDS011;10442;49.932;11.592;2023-05-14T06:23:30;4.90;;;4.60;;
20567;SDS011;10442;49.932;11.592;2023-05-14T06:25:58;5.60;;;4.65;;
20567;SDS011;10442;49.932;11.592;2023-05-14T06:28:25;4.90;;;4.50;;
20567;SDS011;10442;49.932;11.592;2023-05-14T06:30:52;5.70;;;5.20;;
20567;SDS011;10442;49.932;11.592;2023-05-14T06:33:20;5.07;;;4.65;;
20567;SDS011;10442;49.932;11.592;2023-05-14T06:36:02;5.88;;;5.45;;
20567;SDS011;10442;49.932;11.592;2023-05-14T06:38:31;5.32;;;4.93;;
20567;SDS011;10442;49.932;11.592;2023-05-14T06:40:58;5.47;;;5.00;;
20567;SDS011;10442;49.932;11.592;2023-05-14T06:43:26;5.15;;;4.70;;
20567;SDS011;10442;49.932;11.592;2023-05-14T06:45:54;4.80;;;4.40;;
20567;SDS011;10442;49.932;11.592;2023-05-14T06:48:21;5.75;;;5.25;;
20567;SDS011;10442;49.932;11.592;2023-05-14T06:50:49;7.10;;;6.40;;
20567;SDS011;10442;49.932;11.592;2023-05-14T06:53:16;4.97;;;4.63;;
20567;SDS011;10442;49.932;11.592;2023-05-14T06:55:43;6.03;;;5.43;;
20567;SDS011;10442;49.932;11.592;2023-05-14T06:58:13;5.78;;;5.38;;
20567;SDS011;10442;49.932;11.592;2023-05-14T07:00:41;6.97;;;6.40;;
20567;SDS011;10442;49.932;11.592;2023-05-14T07:03:08;7.07;;;6.47;;
20567;SDS011;10442;49.932;11.592;2023-05-14T07:05:36;8.23;;;7.38;;
20567;SDS011;10442;49.932;11.592;2023-05-14T07:08:03;6.55;;;5.78;;
20567;SDS011;10442;49.932;11.592;2023-05-14T07:10:31;6.22;;;5.72;;
20567;SDS011;10442;49.932;11.592;2023-05-14T07:12:59;7.57;;;6.53;;
20567;SDS011;10442;49.932;11.592;2023-05-14T07:15:26;6.03;;;5.63;;
20567;SDS011;10442;49.932;11.592;2023-05-14T07:17:53;6.28;;;5.68;;
20567;SDS011;10442;49.932;11.592;2023-05-14T07:20:21;5.47;;;5.07;;
20567;SDS011;10442;49.932;11.592;2023-05-14T07:22:51;6.40;;;5.88;;
20567;SDS011;10442;49.932;11.592;2023-05-14T07:25:18;5.78;;;5.28;;
20567;SDS011;10442;49.932;11.592;2023-05-14T07:27:46;6.00;;;5.43;;
20567;SDS011;10442;49.932;11.592;2023-05-14T07:30:13;6.10;;;5.60;;
20567;SDS011;10442;49.932;11.592;2023-05-14T07:32:41;6.05;;;5.57;;
20567;SDS011;10442;49.932;11.592;2023-05-14T07:35:09;7.03;;;6.40;;
20567;SDS011;10442;49.932;11.592;2023-05-14T07:37:37;5.93;;;5.45;;
20567;SDS011;10442;49.932;11.592;2023-05-14T07:40:05;5.13;;;4.72;;
20567;SDS011;10442;49.932;11.592;2023-05-14T07:42:33;5.32;;;4.93;;
20567;SDS011;10442;49.932;11.592;2023-05-14T07:45:03;5.65;;;5.25;;
20567;SDS011;10442;49.932;11.592;2023-05-14T07:47:31;5.68;;;5.13;;
20567;SDS011;10442;49.932;11.592;2023-05-14T07:49:59;5.82;;;5.32;;
20567;SDS011;10442;49.932;11.592;2023-05-14T07:52:27;5.57;;;5.18;;
20567;SDS011;10442;49.932;11.592;2023-05-14T07:54:54;5.35;;;4.95;;
20567;SDS011;10442;49.932;11.592;2023-05-14T07:57:22;5.45;;;5.05;;
20567;SDS011;10442;49.932;11.592;2023-05-14T07:59:49;5.85;;;5.35;;
20567;SDS011;10442;49.932;11.592;2023-05-14T08:02:17;4.65;;;4.30;;
20567;SDS011;10442;49.932;11.592;2023-05-14T08:04:44;4.80;;;4.50;;
20567;SDS011;10442;49.932;11.592;2023-05-14T08:07:11;5.47;;;5.07;;
20567;SDS011;10442;49.932;11.592;2023-05-14T08:09:39;4.90;;;4.50;;
20567;SDS011;10442;49.932;11.592;2023-05-14T08:12:06;5.15;;;4.80;;
20567;SDS011;10442;49.932;11.592;2023-05-14T08:14:34;5.38;;;4.88;;
20567;SDS011;10442;49.932;11.592;2023-05-14T08:17:02;5.05;;;4.65;;
20567;SDS011;10442;49.932;11.592;2023-05-14T08:19:29;6.28;;;5.78;;
20567;SDS011;10442;49.932;11.592;2023-05-14T08:21:57;5.95;;;5.45;;
20567;SDS011;10442;49.932;11.592;2023-05-14T08:24:24;5.20;;;4.80;;
20567;SDS011;10442;49.932;11.592;2023-05-14T08:26:51;6.10;;;5.60;;
20567;SDS011;10442;49.932;11.592;2023-05-14T08:29:18;5.22;;;4.82;;
20567;SDS011;10442;49.932;11.592;2023-05-14T08:31:47;5.72;;;5.22;;
20567;SDS011;10442;49.932;11.592;2023-05-14T08:34:17;6.38;;;5.07;;
20567;SDS011;10442;49.932;11.592;2023-05-14T08:36:44;4.75;;;4.35;;
20567;SDS011;10442;49.932;11.592;2023-05-14T08:39:12;4.63;;;4.22;;
20567;SDS011;10442;49.932;11.592;2023-05-14T08:41:39;5.32;;;4.93;;
20567;SDS011;10442;49.932;11.592;2023-05-14T08:44:11;5.35;;;4.63;;
20567;SDS011;10442;49.932;11.592;2023-05-14T08:46:40;4.47;;;4.18;;
20567;SDS011;10442;49.932;11.592;2023-05-14T08:52:02;4.90;;;4.50;;
20567;SDS011;10442;49.932;11.592;2023-05-14T08:54:30;4.65;;;4.35;;
20567;SDS011;10442;49.932;11.592;2023-05-14T08:56:58;4.72;;;4.32;;
20567;SDS011;10442;49.932;11.592;2023-05-14T08:59:25;4.68;;;4.30;;
20567;SDS011;10442;49.932;11.592;2023-05-14T09:01:54;4.78;;;4.38;;
20567;SDS011;10442;49.932;11.592;2023-05-14T09:04:24;4.70;;;4.35;;
20567;SDS011;10442;49.932;11.592;2023-05-14T09:06:53;5.25;;;4.85;;
20567;SDS011;10442;49.932;11.592;2023-05-14T09:09:22;5.03;;;4.63;;
20567;SDS011;10442;49.932;11.592;2023-05-14T09:11:50;4.53;;;4.13;;
20567;SDS011;10442;49.932;11.592;2023-05-14T09:14:18;5.78;;;5.05;;
20567;SDS011;10442;49.932;11.592;2023-05-14T09:16:47;4.00;;;3.70;;
20567;SDS011;10442;49.932;11.592;2023-05-14T09:19:17;3.97;;;3.70;;
20567;SDS011;10442;49.932;11.592;2023-05-14T09:21:45;4.40;;;4.10;;
20567;SDS011;10442;49.932;11.592;2023-05-14T09:24:18;4.95;;;4.55;;
20567;SDS011;10442;49.932;11.592;2023-05-14T09:26:54;4.72;;;4.13;;
20567;SDS011;10442;49.932;11.592;2023-05-14T09:29:23;4.35;;;4.03;;
20567;SDS011;10442;49.932;11.592;2023-05-14T09:31:52;4.60;;;4.20;;
20567;SDS011;10442;49.932;11.592;2023-05-14T09:34:27;4.88;;;4.35;;
20567;SDS011;10442;49.932;11.592;2023-05-14T09:36:56;4.07;;;3.70;;
20567;SDS011;10442;49.932;11.592;2023-05-14T09:39:32;4.63;;;4.22;;
20567;SDS011;10442;49.932;11.592;2023-05-14T09:42:02;6.65;;;3.95;;
20567;SDS011;10442;49.932;11.592;2023-05-14T09:44:29;4.28;;;3.88;;
20567;SDS011;10442;49.932;11.592;2023-05-14T09:46:58;5.32;;;3.92;;
20567;SDS011;10442;49.932;11.592;2023-05-14T09:49:25;4.70;;;4.30;;
20567;SDS011;10442;49.932;11.592;2023-05-14T09:51:52;5.03;;;4.60;;
20567;SDS011;10442;49.932;11.592;2023-05-14T09:54:20;4.35;;;3.95;;
20567;SDS011;10442;49.932;11.592;2023-05-14T09:56:47;4.60;;;4.20;;
20567;SDS011;10442;49.932;11.592;2023-05-14T09:59:15;4.50;;;4.20;;
20567;SDS011;10442;49.932;11.592;2023-05-14T10:01:42;4.65;;;4.22;;
20567;SDS011;10442;49.932;11.592;2023-05-14T10:04:10;4.22;;;3.72;;
20567;SDS011;10442;49.932;11.592;2023-05-14T10:06:39;4.32;;;4.00;;
20567;SDS011;10442;49.932;11.592;2023-05-14T10:09:11;5.25;;;4.85;;
20567;SDS011;10442;49.932;11.592;2023-05-14T10:11:41;4.00;;;3.72;;
20567;SDS011;10442;49.932;11.592;2023-05-14T10:14:16;4.70;;;4.30;;
20567;SDS011;10442;49.932;11.592;2023-05-14T10:16:50;4.68;;;4.28;;
20567;SDS011;10442;49.932;11.592;2023-05-14T10:19:19;4.95;;;4.53;;
20567;SDS011;10442;49.932;11.592;2023-05-14T10:21:52;6.32;;;4.50;;
20567;SDS011;10442;49.932;11.592;2023-05-14T10:24:23;3.88;;;3.53;;
20567;SDS011;10442;49.932;11.592;2023-05-14T10:26:51;4.32;;;3.90;;
20567;SDS011;10442;49.932;11.592;2023-05-14T10:29:18;4.72;;;4.43;;
20567;SDS011;10442;49.932;11.592;2023-05-14T10:31:47;4.72;;;4.32;;
20567;SDS011;10442;49.932;11.592;2023-05-14T10:34:30;4.28;;;3.97;;
20567;SDS011;10442;49.932;11.592;2023-05-14T10:37:09;4.30;;;3.90;;
20567;SDS011;10442;49.932;11.592;2023-05-14T10:42:24;3.70;;;3.50;;
20567;SDS011;10442;49.932;11.592;2023-05-14T10:44:54;3.75;;;3.55;;
20567;SDS011;10442;49.932;11.592;2023-05-14T10:47:24;4.82;;;3.60;;
20567;SDS011;10442;49.932;11.592;2023-05-14T10:49:54;3.10;;;2.88;;
20567;SDS011;10442;49.932;11.592;2023-05-14T10:52:24;4.50;;;3.42;;
20567;SDS011;10442;49.932;11.592;2023-05-14T10:54:54;3.50;;;3.20;;
20567;SDS011;10442;49.932;11.592;2023-05-14T10:57:23;4.22;;;3.92;;
20567;SDS011;10442;49.932;11.592;2023-05-14T10:59:57;3.72;;;3.42;;
20567;SDS011;10442;49.932;11.592;2023-05-14T11:04:57;3.90;;;3.60;;
20567;SDS011;10442;49.932;11.592;2023-05-14T11:07:33;3.00;;;2.80;;
20567;SDS011;10442;49.932;11.592;2023-05-14T11:10:06;3.42;;;3.13;;
20567;SDS011;10442;49.932;11.592;2023-05-14T11:12:36;2.97;;;2.78;;
20567;SDS011;10442;49.932;11.592;2023-05-14T11:15:06;2.80;;;2.60;;
20567;SDS011;10442;49.932;11.592;2023-05-14T11:17:35;7.90;;;3.92;;
20567;SDS011;10442;49.932;11.592;2023-05-14T11:20:04;3.17;;;2.97;;
20567;SDS011;10442;49.932;11.592;2023-05-14T11:22:33;7.78;;;3.25;;
20567;SDS011;10442;49.932;11.592;2023-05-14T11:25:01;3.72;;;3.42;;
20567;SDS011;10442;49.932;11.592;2023-05-14T11:27:29;2.78;;;2.58;;
20567;SDS011;10442;49.932;11.592;2023-05-14T11:29:57;3.40;;;3.20;;
20567;SDS011;10442;49.932;11.592;2023-05-14T11:32:26;2.85;;;2.65;;
20567;SDS011;10442;49.932;11.592;2023-05-14T11:34:54;4.50;;;3.50;;
20567;SDS011;10442;49.932;11.592;2023-05-14T11:37:21;3.13;;;2.92;;
20567;SDS011;10442;49.932;11.592;2023-05-14T11:39:50;3.05;;;2.83;;
20567;SDS011;10442;49.932;11.592;2023-05-14T11:42:20;2.65;;;2.42;;
20567;SDS011;10442;49.932;11.592;2023-05-14T11:44:48;3.45;;;2.22;;
20567;SDS011;10442;49.932;11.592;2023-05-14T11:47:18;3.10;;;2.90;;
20567;SDS011;10442;49.932;11.592;2023-05-14T11:49:47;2.30;;;2.20;;
20567;SDS011;10442;49.932;11.592;2023-05-14T11:52:15;3.30;;;3.10;;
20567;SDS011;10442;49.932;11.592;2023-05-14T11:54:45;3.28;;;3.08;;
20567;SDS011;10442;49.932;11.592;2023-05-14T11:57:14;2.15;;;2.05;;
20567;SDS011;10442;49.932;11.592;2023-05-14T11:59:44;3.53;;;3.22;;
20567;SDS011;10442;49.932;11.592;2023-05-14T12:02:12;2.85;;;2.65;;
20567;SDS011;10442;49.932;11.592;2023-05-14T12:04:41;3.55;;;3.28;;
20567;SDS011;10442;49.932;11.592;2023-05-14T12:07:10;3.10;;;2.80;;
20567;SDS011;10442;49.932;11.592;2023-05-14T12:09:39;3.00;;;2.80;;
20567;SDS011;10442;49.932;11.592;2023-05-14T12:12:11;2.97;;;2.78;;
20567;SDS011;10442;49.932;11.592;2023-05-14T12:14:39;3.88;;;3.00;;
20567;SDS011;10442;49.932;11.592;2023-05-14T12:17:10;3.40;;;3.10;;
20567;SDS011;10442;49.932;11.592;2023-05-14T12:19:43;2.92;;;2.72;;
20567;SDS011;10442;49.932;11.592;2023-05-14T12:22:14;3.88;;;3.58;;
20567;SDS011;10442;49.932;11.592;2023-05-14T12:27:22;3.20;;;3.00;;
20567;SDS011;10442;49.932;11.592;2023-05-14T12:30:02;3.08;;;2.88;;
20567;SDS011;10442;49.932;11.592;2023-05-14T12:32:47;3.45;;;3.25;;
20567;SDS011;10442;49.932;11.592;2023-05-14T12:35:19;3.40;;;3.15;;
20567;SDS011;10442;49.932;11.592;2023-05-14T12:37:47;3.22;;;3.03;;
20567;SDS011;10442;49.932;11.592;2023-05-14T12:40:14;2.78;;;2.58;;
20567;SDS011;10442;49.932;11.592;2023-05-14T12:42:42;3.95;;;3.75;;
20567;SDS011;10442;49.932;11.592;2023-05-14T12:45:09;3.13;;;2.83;;
20567;SDS011;10442;49.932;11.592;2023-05-14T12:47:37;3.40;;;3.20;;
20567;SDS011;10442;49.932;11.592;2023-05-14T12:50:05;3.75;;;3.17;;
20567;SDS011;10442;49.932;11.592;2023-05-14T12:52:33;3.20;;;3.00;;
20567;SDS011;10442;49.932;11.592;2023-05-14T12:55:06;4.32;;;2.58;;
20567;SDS011;10442;49.932;11.592;2023-05-14T12:57:34;3.15;;;2.95;;
20567;SDS011;10442;49.932;11.592;2023-05-14T13:00:03;3.45;;;3.25;;
20567;SDS011;10442;49.932;11.592;2023-05-14T13:02:34;3.33;;;3.03;;
20567;SDS011;10442;49.932;11.592;2023-05-14T13:05:09;3.08;;;2.88;;
20567;SDS011;10442;49.932;11.592;2023-05-14T13:07:37;3.40;;;3.10;;
20567;SDS011;10442;49.932;11.592;2023-05-14T13:10:05;3.20;;;2.92;;
20567;SDS011;10442;49.932;11.592;2023-05-14T13:12:33;3.67;;;3.47;;
20567;SDS011;10442;49.932;11.592;2023-05-14T13:15:00;3.28;;;3.08;;
20567;SDS011;10442;49.932;11.592;2023-05-14T13:17:27;4.25;;;3.80;;
20567;SDS011;10442;49.932;11.592;2023-05-14T13:19:55;3.50;;;3.30;;
20567;SDS011;10442;49.932;11.592;2023-05-14T13:22:22;3.00;;;2.80;;
20567;SDS011;10442;49.932;11.592;2023-05-14T13:24:50;2.55;;;2.45;;
20567;SDS011;10442;49.932;11.592;2023-05-14T13:27:17;3.55;;;3.20;;
20567;SDS011;10442;49.932;11.592;2023-05-14T13:29:45;3.55;;;3.35;;
20567;SDS011;10442;49.932;11.592;2023-05-14T13:32:12;3.15;;;2.95;;
20567;SDS011;10442;49.932;11.592;2023-05-14T13:34:39;3.15;;;2.95;;
20567;SDS011;10442;49.932;11.592;2023-05-14T13:37:07;4.00;;;2.92;;
20567;SDS011;10442;49.932;11.592;2023-05-14T13:39:34;2.90;;;2.70;;
20567;SDS011;10442;49.932;11.592;2023-05-14T13:42:01;3.75;;;3.45;;
20567;SDS011;10442;49.932;11.592;2023-05-14T13:44:29;3.47;;;3.28;;
20567;SDS011;10442;49.932;11.592;2023-05-14T13:46:56;3.97;;;3.65;;
20567;SDS011;10442;49.932;11.592;2023-05-14T13:49:23;3.33;;;3.13;;
20567;SDS011;10442;49.932;11.592;2023-05-14T13:51:51;3.45;;;3.25;;
20567;SDS011;10442;49.932;11.592;2023-05-14T13:54:18;3.08;;;2.88;;
20567;SDS011;10442;49.932;11.592;2023-05-14T13:56:45;3.13;;;2.90;;
20567;SDS011;10442;49.932;11.592;2023-05-14T13:59:13;2.97;;;2.30;;
20567;SDS011;10442;49.932;11.592;2023-05-14T14:01:40;2.60;;;2.42;;
20567;SDS011;10442;49.932;11.592;2023-05-14T14:04:09;3.15;;;2.92;;
20567;SDS011;10442;49.932;11.592;2023-05-14T14:06:36;3.05;;;2.85;;
20567;SDS011;10442;49.932;11.592;2023-05-14T14:09:03;2.80;;;2.60;;
20567;SDS011;10442;49.932;11.592;2023-05-14T14:11:31;3.05;;;2.85;;
20567;SDS011;10442;49.932;11.592;2023-05-14T14:13:58;4.07;;;2.90;;
20567;SDS011;10442;49.932;11.592;2023-05-14T14:16:26;2.85;;;2.65;;
20567;SDS011;10442;49.932;11.592;2023-05-14T14:18:53;2.25;;;2.15;;
20567;SDS011;10442;49.932;11.592;2023-05-14T14:21:21;2.95;;;2.67;;
20567;SDS011;10442;49.932;11.592;2023-05-14T14:23:48;3.17;;;2.97;;
20567;SDS011;10442;49.932;11.592;2023-05-14T14:26:16;2.83;;;2.63;;
20567;SDS011;10442;49.932;11.592;2023-05-14T14:28:43;3.22;;;2.92;;
20567;SDS011;10442;49.932;11.592;2023-05-14T14:31:11;3.72;;;2.75;;
20567;SDS011;10442;49.932;11.592;2023-05-14T14:33:39;2.85;;;2.65;;
20567;SDS011;10442;49.932;11.592;2023-05-14T14:36:06;2.78;;;2.58;;
20567;SDS011;10442;49.932;11.592;2023-05-14T14:38:34;2.92;;;2.72;;
20567;SDS011;10442;49.932;11.592;2023-05-14T14:41:01;2.17;;;2.08;;
20567;SDS011;10442;49.932;11.592;2023-05-14T14:43:29;2.33;;;2.15;;
20567;SDS011;10442;49.932;11.592;2023-05-14T14:45:56;2.75;;;2.55;;
20567;SDS011;10442;49.932;11.592;2023-05-14T14:48:28;2.58;;;2.38;;
20567;SDS011;10442;49.932;11.592;2023-05-14T14:50:57;2.60;;;2.40;;
20567;SDS011;10442;49.932;11.592;2023-05-14T14:53:25;2.10;;;2.00;;
20567;SDS011;10442;49.932;11.592;2023-05-14T14:55:53;2.05;;;1.95;;
20567;SDS011;10442;49.932;11.592;2023-05-14T14:58:21;2.53;;;2.38;;
20567;SDS011;10442;49.932;11.592;2023-05-14T15:00:50;2.97;;;2.78;;